createdAt,value
2023-01-06T00:00:47.492Z,4.22
2023-01-06T00:06:01.937Z,4.20
2023-01-06T00:11:11.764Z,4.18
2023-01-06T00:16:22.080Z,4.14
2023-01-06T00:21:30.211Z,4.11
2023-01-06T00:26:37.483Z,4.11
2023-01-06T00:31:42.931Z,4.10
2023-01-06T00:36:50.214Z,4.08
2023-01-06T00:42:07.938Z,4.06
2023-01-06T00:47:14.903Z,4.07
2023-01-06T00:52:22.011Z,4.04
2023-01-06T01:03:06.902Z,4.00
2023-01-06T01:08:16.039Z,3.98
2023-01-06T01:13:23.968Z,3.96
2023-01-06T01:18:31.719Z,3.93
2023-01-06T01:23:39.244Z,3.89
2023-01-06T01:28:46.982Z,3.86
2023-01-06T01:33:54.538Z,3.84
2023-01-06T01:39:02.178Z,3.82
2023-01-06T01:44:36.221Z,3.80
2023-01-06T01:49:45.988Z,3.76
2023-01-06T01:54:55.772Z,3.76
2023-01-06T02:00:05.900Z,3.76
2023-01-06T02:05:15.783Z,3.73
2023-01-06T02:10:27.086Z,3.70
2023-01-06T02:15:35.705Z,3.68
2023-01-06T02:21:05.932Z,3.65
2023-01-06T02:26:48.663Z,3.62
2023-01-06T02:32:16.246Z,3.59
2023-01-06T02:37:29.444Z,3.54
2023-01-06T02:42:46.753Z,3.49
2023-01-06T02:48:02.046Z,3.49
2023-01-06T03:01:30.632Z,3.46
2023-01-06T03:06:44.948Z,3.41
2023-01-06T03:11:54.491Z,3.39
2023-01-06T03:17:02.200Z,3.39
2023-01-06T03:22:10.874Z,3.38
2023-01-06T03:27:20.693Z,3.33
2023-01-06T03:32:34.589Z,3.30
2023-01-06T03:37:52.957Z,3.30
2023-01-06T03:43:16.662Z,3.28
2023-01-06T03:48:35.574Z,3.27
2023-01-06T03:53:49.745Z,3.26
2023-01-06T03:59:00.636Z,3.27
2023-01-06T04:04:08.344Z,3.26
2023-01-06T04:09:15.956Z,3.25
2023-01-06T04:14:23.852Z,3.21
2023-01-06T04:19:32.204Z,3.19
2023-01-06T04:24:40.044Z,3.20
2023-01-06T04:29:47.940Z,3.19
2023-01-06T04:34:56.052Z,3.17
2023-01-06T04:40:04.378Z,3.15
2023-01-06T04:45:13.207Z,3.13
2023-01-06T04:50:22.244Z,3.13
2023-01-06T04:55:30.345Z,3.14
2023-01-06T05:00:37.932Z,3.12
2023-01-06T05:05:46.104Z,3.08
2023-01-06T05:11:00.523Z,3.03
2023-01-06T05:16:13.053Z,2.99
2023-01-06T05:29:37.542Z,2.89
2023-01-06T05:34:45.773Z,2.78
2023-01-06T05:39:54.840Z,2.70
2023-01-06T05:45:02.215Z,2.66
2023-01-06T05:50:12.048Z,2.59
2023-01-06T05:55:19.577Z,2.56
2023-01-06T06:00:27.899Z,2.53
2023-01-06T06:05:35.234Z,2.48
2023-01-06T06:10:42.603Z,2.43
2023-01-06T06:15:49.971Z,2.38
2023-01-06T06:21:04.241Z,2.34
2023-01-06T06:26:13.121Z,2.30
2023-01-06T06:31:23.239Z,2.29
2023-01-06T06:36:32.335Z,2.30
2023-01-06T06:41:39.983Z,2.32
2023-01-06T06:46:47.501Z,2.35
2023-01-06T06:51:55.739Z,2.35
2023-01-06T06:57:03.406Z,2.34
2023-01-06T07:02:11.642Z,2.39
2023-01-06T07:07:19.647Z,2.41
2023-01-06T07:12:28.041Z,2.41
2023-01-06T07:17:35.877Z,2.41
2023-01-06T07:22:45.148Z,2.38
2023-01-06T07:27:59.176Z,2.34
2023-01-06T07:33:07.119Z,2.33
2023-01-06T07:38:14.590Z,2.33
2023-01-06T07:43:22.252Z,2.36
2023-01-06T07:48:30.276Z,2.38
2023-01-06T07:53:38.553Z,2.39
2023-01-06T07:58:45.956Z,2.37
2023-01-06T08:03:53.192Z,2.36
2023-01-06T08:09:00.978Z,2.34
2023-01-06T08:14:08.480Z,2.32
2023-01-06T08:19:16.204Z,2.31
2023-01-06T08:24:23.705Z,2.33
2023-01-06T08:29:32.040Z,2.37
2023-01-06T08:34:39.878Z,2.44
2023-01-06T08:39:47.767Z,2.53
2023-01-06T08:44:56.739Z,2.61
2023-01-06T08:50:04.133Z,2.69
2023-01-06T08:55:12.301Z,2.74
2023-01-06T09:00:21.168Z,2.84
2023-01-06T09:05:29.710Z,2.96
2023-01-06T09:10:40.311Z,3.04
2023-01-06T09:15:49.316Z,3.13
2023-01-06T09:20:58.664Z,3.22
2023-01-06T09:26:07.110Z,3.32
2023-01-06T09:31:14.952Z,3.32
2023-01-06T09:36:23.134Z,3.32
2023-01-06T09:41:55.221Z,3.33
2023-01-06T09:47:04.377Z,3.38
2023-01-06T09:52:18.818Z,3.46
2023-01-06T09:57:34.927Z,3.50
2023-01-06T10:02:44.052Z,3.49
2023-01-06T10:08:00.189Z,3.48
2023-01-06T10:13:24.616Z,3.47
2023-01-06T10:18:41.032Z,3.47
2023-01-06T10:24:18.187Z,3.51
2023-01-06T10:29:31.184Z,3.58
2023-01-06T10:34:39.143Z,3.59
2023-01-06T10:39:49.678Z,3.66
2023-01-06T10:44:58.586Z,3.68
2023-01-06T10:50:06.736Z,3.73
2023-01-06T10:55:29.659Z,3.75
2023-01-06T11:00:37.207Z,3.75
2023-01-06T11:05:45.106Z,3.77
2023-01-06T11:10:58.685Z,3.80
2023-01-06T11:16:09.701Z,3.81
2023-01-06T11:21:18.650Z,3.78
2023-01-06T11:26:28.421Z,3.77
2023-01-06T11:31:36.991Z,3.82
2023-01-06T11:36:48.568Z,3.88
2023-01-06T11:41:58.089Z,3.94
2023-01-06T11:47:09.253Z,3.89
2023-01-06T11:52:27.653Z,3.82
2023-01-06T11:57:43.101Z,3.87
2023-01-06T12:02:57.763Z,3.93
2023-01-06T12:08:12.118Z,3.96
2023-01-06T12:13:19.650Z,4.01
2023-01-06T12:18:31.622Z,4.08
2023-01-06T12:23:41.526Z,4.15
2023-01-06T12:28:51.611Z,4.23
2023-01-06T12:34:03.306Z,4.30
2023-01-06T12:39:19.420Z,4.33
2023-01-06T12:44:39.331Z,4.34
2023-01-06T12:49:56.223Z,4.32
2023-01-06T12:55:06.566Z,4.35
2023-01-06T13:00:43.659Z,4.41
2023-01-06T13:06:02.652Z,4.48
2023-01-06T13:11:24.437Z,4.53
2023-01-06T13:16:39.315Z,4.58
2023-01-06T13:21:48.538Z,4.60
2023-01-06T13:27:22.622Z,4.61
2023-01-06T13:32:57.264Z,4.62
2023-01-06T13:38:19.955Z,4.66
2023-01-06T13:43:31.653Z,4.65
2023-01-06T13:48:43.748Z,4.63
2023-01-06T13:53:51.381Z,4.56
2023-01-06T13:59:25.388Z,4.54
2023-01-06T14:04:49.786Z,4.53
2023-01-06T14:09:58.051Z,4.49
2023-01-06T14:15:09.346Z,4.45
2023-01-06T14:20:32.308Z,4.40
2023-01-06T14:25:44.109Z,4.36
2023-01-06T14:30:52.767Z,4.34
2023-01-06T14:36:12.018Z,4.35
2023-01-06T14:41:28.118Z,4.38
2023-01-06T14:46:44.601Z,4.39
2023-01-06T14:51:55.294Z,4.39
2023-01-06T14:57:09.844Z,4.37
2023-01-06T15:02:18.882Z,4.32
2023-01-06T15:07:27.383Z,4.27
2023-01-06T15:12:36.272Z,4.23
2023-01-06T15:17:44.598Z,4.21
2023-01-06T15:22:53.258Z,4.22
2023-01-06T15:28:00.691Z,4.27
2023-01-06T15:33:10.826Z,4.30
2023-01-06T15:38:31.553Z,4.31
2023-01-06T15:43:45.762Z,4.30
2023-01-06T15:48:54.046Z,4.27
2023-01-06T15:54:02.550Z,4.25
2023-01-06T15:59:18.266Z,4.23
2023-01-06T16:04:27.689Z,4.20
2023-01-06T16:09:38.424Z,4.19
2023-01-06T16:14:49.776Z,4.21
2023-01-06T16:20:03.549Z,4.22
2023-01-06T16:25:27.286Z,4.20
2023-01-06T16:30:36.909Z,4.18
2023-01-06T16:35:45.473Z,4.16
2023-01-06T16:40:55.744Z,4.15
2023-01-06T16:46:12.009Z,4.13
2023-01-06T16:51:20.056Z,4.11
2023-01-06T16:56:27.776Z,4.09
2023-01-06T17:01:37.344Z,4.10
2023-01-06T17:06:47.723Z,4.11
2023-01-06T17:11:59.303Z,4.05
2023-01-06T17:17:21.916Z,4.01
2023-01-06T17:22:31.758Z,4.03
2023-01-06T17:27:40.781Z,4.04
2023-01-06T17:32:49.525Z,4.04
2023-01-06T17:38:00.359Z,4.04
2023-01-06T17:43:17.946Z,4.02
2023-01-06T17:48:27.480Z,3.99
2023-01-06T17:53:55.829Z,3.93
2023-01-06T17:59:13.878Z,3.88
2023-01-06T18:04:25.938Z,3.88
2023-01-06T18:09:33.403Z,3.84
2023-01-06T18:14:46.050Z,3.77
2023-01-06T18:19:54.930Z,3.67
2023-01-06T18:25:03.663Z,3.61
2023-01-06T18:30:21.776Z,3.60
2023-01-06T18:35:31.505Z,3.61
2023-01-06T18:40:40.560Z,3.63
2023-01-06T18:45:51.905Z,3.64
2023-01-06T18:51:02.030Z,3.59
2023-01-06T18:56:16.830Z,3.52
2023-01-06T19:01:28.193Z,3.52
2023-01-06T19:06:40.531Z,3.56
2023-01-06T19:11:49.191Z,3.56
2023-01-06T19:16:58.284Z,3.58
2023-01-06T19:22:20.220Z,3.55
2023-01-06T19:27:43.772Z,3.55
2023-01-06T19:32:51.211Z,3.57
2023-01-06T19:38:06.888Z,3.61
2023-01-06T19:43:19.323Z,3.63
2023-01-06T19:48:31.029Z,3.64
2023-01-06T19:53:46.555Z,3.66
2023-01-06T19:58:59.144Z,3.64
2023-01-06T20:04:18.950Z,3.64
2023-01-06T20:09:27.363Z,3.65
2023-01-06T20:14:35.279Z,3.67
2023-01-06T20:19:44.401Z,3.70
2023-01-06T20:24:52.053Z,3.70
2023-01-06T20:30:05.095Z,3.71
2023-01-06T20:35:14.649Z,3.77
2023-01-06T20:40:22.378Z,3.84
2023-01-06T20:45:31.054Z,3.91
2023-01-06T20:50:39.411Z,3.96
2023-01-06T20:55:47.115Z,4.01
2023-01-06T21:00:55.031Z,4.09
2023-01-06T21:06:02.441Z,4.18
2023-01-06T21:11:10.060Z,4.25
2023-01-06T21:16:18.650Z,4.33
2023-01-06T21:21:26.589Z,4.45
2023-01-06T21:26:35.585Z,4.60
2023-01-06T21:31:44.241Z,4.75
2023-01-06T21:36:52.421Z,4.89
2023-01-06T21:42:19.634Z,4.99
2023-01-06T21:47:27.685Z,5.09
2023-01-06T21:52:37.079Z,5.16
2023-01-06T21:57:45.801Z,5.23
2023-01-06T22:02:56.299Z,5.34
2023-01-06T22:08:06.926Z,5.43
2023-01-06T22:13:19.446Z,5.52
2023-01-06T22:18:29.307Z,5.59
2023-01-06T22:23:38.470Z,5.67
2023-01-06T22:28:45.873Z,5.77
2023-01-06T22:33:54.058Z,5.83
2023-01-06T22:39:02.122Z,5.88
2023-01-06T22:44:10.128Z,5.96
2023-01-06T22:49:17.641Z,6.06
2023-01-06T22:54:26.420Z,6.14
2023-01-06T22:59:33.966Z,6.18
2023-01-06T23:04:41.579Z,6.21
2023-01-06T23:09:49.496Z,6.25
2023-01-06T23:14:57.621Z,6.30
2023-01-06T23:20:05.564Z,6.38
2023-01-06T23:25:13.266Z,6.44
2023-01-06T23:30:22.334Z,6.51
2023-01-06T23:35:30.565Z,6.56
2023-01-06T23:40:37.913Z,6.63
2023-01-06T23:45:45.536Z,6.70
2023-01-06T23:50:54.150Z,6.75
2023-01-06T23:56:04.401Z,6.79
